Time;durP1;ratioP1;P1;durP2;ratioP2;P2;SDS_P1;SDS_P2;PMS_P1;PMS_P2;Temp;Humidity;BMP_temperature;BMP_pressure;BME280_temperature;BME280_humidity;BME280_pressure;Samples;Min_cycle;Max_cycle;Signal;HPM_P1;HPM_P2
2022/01/02 00:00:52;;;;;;;5.72;4.15;;;;;;;;;;5052212;28;20045;-59
2022/01/02 00:03:19;;;;;;;6.03;3.95;;;;;;;;;;5053373;28;20055;-60
2022/01/02 00:05:46;;;;;;;4.50;3.65;;;;;;;;;;5052956;28;20052;-59
2022/01/02 00:08:13;;;;;;;4.65;4.00;;;;;;;;;;5052738;28;20501;-59
2022/01/02 00:10:46;;;;;;;7.00;3.50;;;;;;;;;;5053286;28;20045;-59
2022/01/02 00:13:15;;;;;;;4.80;4.03;;;;;;;;;;5053253;28;20369;-59
2022/01/02 00:15:41;;;;;;;4.50;4.05;;;;;;;;;;5051915;28;20044;-59
2022/01/02 00:18:11;;;;;;;4.70;4.25;;;;;;;;;;5053275;28;20136;-59
2022/01/02 00:20:46;;;;;;;6.03;4.40;;;;;;;;;;5053096;28;20147;-59
2022/01/02 00:23:18;;;;;;;5.28;3.70;;;;;;;;;;5052258;28;20091;-59
2022/01/02 00:25:45;;;;;;;5.47;3.80;;;;;;;;;;5052568;28;20051;-59
2022/01/02 00:28:12;;;;;;;6.00;4.10;;;;;;;;;;5052138;28;20037;-59
2022/01/02 00:30:38;;;;;;;4.43;4.03;;;;;;;;;;5052598;28;20049;-59
2022/01/02 00:33:04;;;;;;;5.05;3.92;;;;;;;;;;5052466;28;20041;-59
2022/01/02 00:35:31;;;;;;;4.40;3.85;;;;;;;;;;5052170;28;20478;-59
2022/01/02 00:37:57;;;;;;;4.10;3.70;;;;;;;;;;5052314;28;20118;-59
2022/01/02 00:40:25;;;;;;;5.13;4.53;;;;;;;;;;5052517;28;20480;-59
2022/01/02 00:42:54;;;;;;;4.20;3.80;;;;;;;;;;5051450;28;20045;-59
2022/01/02 00:45:21;;;;;;;4.00;3.60;;;;;;;;;;5052420;28;20479;-59
2022/01/02 00:47:52;;;;;;;5.22;4.03;;;;;;;;;;5052133;28;20056;-59
2022/01/02 00:50:21;;;;;;;4.90;3.92;;;;;;;;;;5051736;28;20053;-59
2022/01/02 00:52:49;;;;;;;3.80;3.30;;;;;;;;;;5051891;28;20044;-59
2022/01/02 00:55:18;;;;;;;4.47;3.67;;;;;;;;;;5052282;28;20049;-59
2022/01/02 00:57:55;;;;;;;4.93;3.63;;;;;;;;;;5051491;28;20072;-59
2022/01/02 01:00:22;;;;;;;5.38;4.22;;;;;;;;;;5052247;28;20541;-59
2022/01/02 01:02:49;;;;;;;3.97;3.42;;;;;;;;;;5052000;28;20053;-59
2022/01/02 01:05:22;;;;;;;4.32;3.90;;;;;;;;;;5051297;28;20048;-59
2022/01/02 01:07:49;;;;;;;5.43;4.10;;;;;;;;;;5051582;28;20503;-59
2022/01/02 01:10:15;;;;;;;4.65;3.90;;;;;;;;;;5051589;28;20047;-59
2022/01/02 01:12:41;;;;;;;4.20;3.80;;;;;;;;;;5051817;28;20041;-59
2022/01/02 01:15:09;;;;;;;5.13;4.25;;;;;;;;;;5051989;28;20053;-59
2022/01/02 01:17:36;;;;;;;5.25;4.00;;;;;;;;;;5051240;28;20087;-59
2022/01/02 01:20:03;;;;;;;4.53;3.90;;;;;;;;;;5051659;28;20478;-59
2022/01/02 01:22:30;;;;;;;6.70;4.05;;;;;;;;;;5051748;28;20499;-59
2022/01/02 01:24:57;;;;;;;4.85;4.15;;;;;;;;;;5050962;28;20095;-59
2022/01/02 01:27:23;;;;;;;4.90;4.07;;;;;;;;;;5051083;28;20585;-59
2022/01/02 01:29:49;;;;;;;5.53;3.70;;;;;;;;;;5051477;28;20461;-59
2022/01/02 01:32:17;;;;;;;3.85;3.45;;;;;;;;;;5050879;28;20075;-59
2022/01/02 01:34:43;;;;;;;6.60;4.03;;;;;;;;;;5051360;28;20044;-59
2022/01/02 01:37:09;;;;;;;6.30;3.90;;;;;;;;;;5051937;28;20088;-59
2022/01/02 01:39:35;;;;;;;6.18;3.28;;;;;;;;;;5051160;28;20115;-59
2022/01/02 01:42:08;;;;;;;4.82;3.88;;;;;;;;;;5051433;28;20091;-60
2022/01/02 01:45:02;;;;;;;6.28;3.90;;;;;;;;;;5051380;28;20664;-59
2022/01/02 01:47:29;;;;;;;5.50;3.63;;;;;;;;;;5050516;28;20045;-60
2022/01/02 01:49:55;;;;;;;5.18;4.03;;;;;;;;;;5051263;28;20045;-60
2022/01/02 01:52:22;;;;;;;4.32;3.63;;;;;;;;;;5051374;28;20099;-59
2022/01/02 01:54:48;;;;;;;5.13;3.88;;;;;;;;;;5051100;28;20115;-59
2022/01/02 01:57:14;;;;;;;5.43;4.22;;;;;;;;;;5051308;28;20049;-59
2022/01/02 01:59:40;;;;;;;6.75;4.03;;;;;;;;;;5050395;28;20087;-61
2022/01/02 02:02:07;;;;;;;7.65;4.03;;;;;;;;;;5051318;28;20045;-59
2022/01/02 02:04:34;;;;;;;4.70;3.95;;;;;;;;;;5051164;28;20399;-59
2022/01/02 02:07:00;;;;;;;6.97;4.32;;;;;;;;;;5050321;28;20122;-59
2022/01/02 02:09:32;;;;;;;5.30;3.72;;;;;;;;;;5051089;28;20132;-59
2022/01/02 02:12:00;;;;;;;4.97;3.75;;;;;;;;;;5051760;28;20071;-59
2022/01/02 02:14:26;;;;;;;5.32;3.38;;;;;;;;;;5049933;28;20092;-60
2022/01/02 02:16:52;;;;;;;6.22;4.03;;;;;;;;;;5051083;28;20312;-59
2022/01/02 02:19:19;;;;;;;4.85;3.78;;;;;;;;;;5050979;28;20083;-59
2022/01/02 02:21:46;;;;;;;4.43;3.67;;;;;;;;;;5050142;28;20096;-59
2022/01/02 02:24:14;;;;;;;5.50;3.83;;;;;;;;;;5051752;28;20049;-59
2022/01/02 02:26:40;;;;;;;5.70;3.58;;;;;;;;;;5051027;28;20044;-59
2022/01/02 02:29:06;;;;;;;5.55;3.72;;;;;;;;;;5049986;28;20045;-59
2022/01/02 02:31:33;;;;;;;4.80;3.55;;;;;;;;;;5050847;28;20487;-59
2022/01/02 02:33:59;;;;;;;5.45;3.85;;;;;;;;;;5050715;28;20091;-58
2022/01/02 02:36:25;;;;;;;4.93;3.63;;;;;;;;;;5050258;28;20041;-59
2022/01/02 02:38:53;;;;;;;5.43;3.70;;;;;;;;;;5053537;28;20053;-59
2022/01/02 02:41:19;;;;;;;6.00;3.80;;;;;;;;;;5054820;28;20049;-59
2022/01/02 02:43:51;;;;;;;8.00;3.95;;;;;;;;;;5054220;28;20451;-59
2022/01/02 02:49:02;;;;;;;5.22;3.53;;;;;;;;;;5054035;28;20603;-59
2022/01/02 02:51:35;;;;;;;5.00;3.40;;;;;;;;;;5054670;28;20057;-59
2022/01/02 02:54:03;;;;;;;6.43;3.78;;;;;;;;;;5054480;28;21143;-59
2022/01/02 02:56:40;;;;;;;5.60;3.50;;;;;;;;;;5053906;28;20053;-59
2022/01/02 02:59:07;;;;;;;6.30;3.55;;;;;;;;;;5054609;28;20051;-59
2022/01/02 03:01:33;;;;;;;4.75;3.20;;;;;;;;;;5054442;28;20045;-59
2022/01/02 03:03:59;;;;;;;5.13;3.50;;;;;;;;;;5053448;28;20111;-59
2022/01/02 03:06:26;;;;;;;5.70;3.30;;;;;;;;;;5054204;28;20091;-59
2022/01/02 03:08:52;;;;;;;6.90;3.78;;;;;;;;;;5054023;28;20519;-59
2022/01/02 03:11:21;;;;;;;6.45;3.10;;;;;;;;;;5053698;28;20056;-58
2022/01/02 03:13:50;;;;;;;6.20;3.45;;;;;;;;;;5054103;28;20484;-59
2022/01/02 03:16:16;;;;;;;5.70;3.65;;;;;;;;;;5054142;28;20095;-59
2022/01/02 03:18:43;;;;;;;5.47;3.20;;;;;;;;;;5053315;28;20466;-58
2022/01/02 03:21:09;;;;;;;6.30;3.47;;;;;;;;;;5054059;28;20052;-58
2022/01/02 03:23:36;;;;;;;7.88;3.55;;;;;;;;;;5054479;28;20048;-59
2022/01/02 03:26:02;;;;;;;6.82;3.67;;;;;;;;;;5053283;28;20049;-60
2022/01/02 03:28:30;;;;;;;6.35;3.35;;;;;;;;;;5054095;28;20061;-60
2022/01/02 03:30:56;;;;;;;7.82;3.75;;;;;;;;;;5054147;28;20041;-59
2022/01/02 03:33:22;;;;;;;8.52;3.55;;;;;;;;;;5053928;28;20453;-60
2022/01/02 03:35:49;;;;;;;7.80;3.65;;;;;;;;;;5053527;28;20111;-59
2022/01/02 03:38:15;;;;;;;7.43;3.58;;;;;;;;;;5054022;28;20049;-60
2022/01/02 03:40:41;;;;;;;8.43;3.58;;;;;;;;;;5053673;28;20490;-59
2022/01/02 03:43:08;;;;;;;6.57;3.63;;;;;;;;;;5053879;28;20395;-59
2022/01/02 03:45:35;;;;;;;6.70;3.40;;;;;;;;;;5053081;28;20106;-59
2022/01/02 03:48:01;;;;;;;5.90;3.28;;;;;;;;;;5053448;28;20056;-59
2022/01/02 03:50:28;;;;;;;7.18;3.42;;;;;;;;;;5053067;28;20107;-59
2022/01/02 03:52:54;;;;;;;5.88;2.92;;;;;;;;;;5052738;28;20102;-59
2022/01/02 03:55:21;;;;;;;6.72;3.75;;;;;;;;;;5053818;28;20458;-59
2022/01/02 03:57:47;;;;;;;6.45;3.42;;;;;;;;;;5053209;28;20049;-59
2022/01/02 04:00:15;;;;;;;6.68;3.22;;;;;;;;;;5052761;28;20064;-59
2022/01/02 04:02:43;;;;;;;6.53;3.70;;;;;;;;;;5053280;28;20041;-59
2022/01/02 04:05:10;;;;;;;7.55;3.00;;;;;;;;;;5053317;28;20057;-59
2022/01/02 04:07:36;;;;;;;6.93;3.30;;;;;;;;;;5052566;28;20052;-59
2022/01/02 04:10:05;;;;;;;7.05;3.53;;;;;;;;;;5052989;28;20557;-59
2022/01/02 04:12:31;;;;;;;8.52;3.17;;;;;;;;;;5053244;28;20078;-59
2022/01/02 04:14:58;;;;;;;8.23;3.42;;;;;;;;;;5052105;28;20167;-59
2022/01/02 04:17:24;;;;;;;10.02;3.80;;;;;;;;;;5052935;28;20045;-59
2022/01/02 04:19:52;;;;;;;7.25;3.53;;;;;;;;;;5053198;28;20406;-59
2022/01/02 04:22:18;;;;;;;7.82;3.10;;;;;;;;;;5052252;28;20094;-60
2022/01/02 04:24:44;;;;;;;8.88;2.95;;;;;;;;;;5052819;28;20052;-59
2022/01/02 04:27:11;;;;;;;8.60;3.25;;;;;;;;;;5052169;28;20049;-59
2022/01/02 04:29:37;;;;;;;6.55;3.08;;;;;;;;;;5053697;28;20045;-60
2022/01/02 04:32:03;;;;;;;9.00;3.35;;;;;;;;;;5052535;28;20123;-59
2022/01/02 04:34:29;;;;;;;7.57;3.40;;;;;;;;;;5052248;28;20052;-59
2022/01/02 04:36:57;;;;;;;9.85;3.15;;;;;;;;;;5052591;28;20380;-59
2022/01/02 04:39:23;;;;;;;6.93;3.05;;;;;;;;;;5052740;28;20053;-59
2022/01/02 04:41:49;;;;;;;7.60;3.38;;;;;;;;;;5051727;28;20103;-59
2022/01/02 04:44:16;;;;;;;8.43;3.13;;;;;;;;;;5052443;28;20095;-59
2022/01/02 04:46:42;;;;;;;7.75;3.45;;;;;;;;;;5052673;28;20353;-59
2022/01/02 04:49:08;;;;;;;8.00;3.35;;;;;;;;;;5051615;28;20122;-59
2022/01/02 04:51:34;;;;;;;5.93;3.00;;;;;;;;;;5052720;28;20044;-60
2022/01/02 04:54:02;;;;;;;10.05;3.10;;;;;;;;;;5051900;28;20049;-59
2022/01/02 04:56:28;;;;;;;6.80;3.40;;;;;;;;;;5051682;28;20049;-59
2022/01/02 04:58:54;;;;;;;7.18;3.40;;;;;;;;;;5052328;28;20045;-59
2022/01/02 05:01:20;;;;;;;8.57;3.65;;;;;;;;;;5052908;28;20048;-59
2022/01/02 05:03:47;;;;;;;5.53;3.08;;;;;;;;;;5051356;28;20041;-59
2022/01/02 05:06:13;;;;;;;10.65;3.58;;;;;;;;;;5052356;28;20091;-59
2022/01/02 05:08:42;;;;;;;8.80;3.25;;;;;;;;;;5052128;28;20118;-59
2022/01/02 05:11:10;;;;;;;7.30;3.00;;;;;;;;;;5051483;28;20122;-59
2022/01/02 05:13:37;;;;;;;6.55;3.40;;;;;;;;;;5051936;28;20060;-59
2022/01/02 05:16:03;;;;;;;7.95;3.47;;;;;;;;;;5051751;28;20487;-59
2022/01/02 05:18:29;;;;;;;7.30;3.17;;;;;;;;;;5051359;28;20045;-59
2022/01/02 05:20:55;;;;;;;7.47;3.25;;;;;;;;;;5051836;28;20091;-60
2022/01/02 05:23:22;;;;;;;6.95;2.80;;;;;;;;;;5051383;28;20049;-59
2022/01/02 05:25:48;;;;;;;7.00;2.72;;;;;;;;;;5051623;28;20045;-60
2022/01/02 05:28:15;;;;;;;5.18;2.90;;;;;;;;;;5051949;28;20450;-59
2022/01/02 05:30:42;;;;;;;7.10;2.92;;;;;;;;;;5050841;28;20041;-60
2022/01/02 05:33:08;;;;;;;9.27;3.30;;;;;;;;;;5051926;28;20545;-59
2022/01/02 05:35:35;;;;;;;7.85;3.03;;;;;;;;;;5051667;28;20044;-59
2022/01/02 05:38:01;;;;;;;6.63;3.10;;;;;;;;;;5050884;28;20110;-60
2022/01/02 05:40:30;;;;;;;9.20;3.00;;;;;;;;;;5051442;28;20041;-59
2022/01/02 05:42:57;;;;;;;5.80;2.90;;;;;;;;;;5051497;28;20053;-59
2022/01/02 05:45:24;;;;;;;4.45;2.90;;;;;;;;;;5050459;28;20456;-59
2022/01/02 05:47:50;;;;;;;6.68;3.08;;;;;;;;;;5051339;28;20071;-59
2022/01/02 05:50:17;;;;;;;9.38;3.55;;;;;;;;;;5051368;28;20045;-59
2022/01/02 05:52:43;;;;;;;5.80;2.92;;;;;;;;;;5050553;28;20049;-60
2022/01/02 05:55:09;;;;;;;7.07;2.85;;;;;;;;;;5051462;28;20045;-59
2022/01/02 05:57:36;;;;;;;6.20;3.35;;;;;;;;;;5051663;28;20474;-60
2022/01/02 06:00:02;;;;;;;6.28;2.85;;;;;;;;;;5050114;28;20777;-59
2022/01/02 06:02:31;;;;;;;3.65;2.75;;;;;;;;;;5051395;28;20044;-59
2022/01/02 06:04:57;;;;;;;5.35;3.00;;;;;;;;;;5050844;28;20049;-59
2022/01/02 06:07:23;;;;;;;5.60;3.03;;;;;;;;;;5050852;28;20045;-59
2022/01/02 06:09:50;;;;;;;5.25;2.83;;;;;;;;;;5050896;28;20122;-59
2022/01/02 06:12:16;;;;;;;4.63;2.92;;;;;;;;;;5050859;28;20045;-60
2022/01/02 06:14:42;;;;;;;8.77;3.47;;;;;;;;;;5050254;28;20049;-59
2022/01/02 06:17:08;;;;;;;7.25;3.25;;;;;;;;;;5051186;28;20041;-59
2022/01/02 06:19:36;;;;;;;4.25;2.90;;;;;;;;;;5050980;28;20531;-59
2022/01/02 06:22:02;;;;;;;7.13;3.47;;;;;;;;;;5050517;28;20095;-59
2022/01/02 06:24:28;;;;;;;7.60;3.20;;;;;;;;;;5051043;28;20095;-60
2022/01/02 06:26:55;;;;;;;6.22;3.53;;;;;;;;;;5050024;28;20466;-59
2022/01/02 06:29:21;;;;;;;7.90;3.15;;;;;;;;;;5051119;28;20053;-60
2022/01/02 06:31:47;;;;;;;5.18;2.88;;;;;;;;;;5050839;28;20099;-59
2022/01/02 06:34:13;;;;;;;5.53;2.97;;;;;;;;;;5050681;28;20439;-59
2022/01/02 06:36:41;;;;;;;7.22;3.10;;;;;;;;;;5050884;28;20075;-59
2022/01/02 06:39:07;;;;;;;6.88;3.17;;;;;;;;;;5051242;28;20045;-59
2022/01/02 06:41:34;;;;;;;6.82;3.20;;;;;;;;;;5050292;28;20111;-59
2022/01/02 06:44:00;;;;;;;5.90;3.13;;;;;;;;;;5050754;28;20041;-58
2022/01/02 06:46:26;;;;;;;5.82;2.95;;;;;;;;;;5050704;28;20072;-58
2022/01/02 06:48:52;;;;;;;6.22;3.10;;;;;;;;;;5049821;28;20487;-58
2022/01/02 06:51:19;;;;;;;5.53;3.00;;;;;;;;;;5050577;28;20053;-59
2022/01/02 06:53:46;;;;;;;6.45;3.53;;;;;;;;;;5050427;28;20498;-59
2022/01/02 06:56:13;;;;;;;6.68;3.00;;;;;;;;;;5049914;28;20049;-59
2022/01/02 06:58:40;;;;;;;4.43;3.08;;;;;;;;;;5050832;28;20102;-59
2022/01/02 07:01:06;;;;;;;6.93;3.30;;;;;;;;;;5050700;28;20436;-59
2022/01/02 07:03:33;;;;;;;4.35;3.10;;;;;;;;;;5049956;28;20049;-59
2022/01/02 07:05:59;;;;;;;5.70;2.92;;;;;;;;;;5050351;28;20045;-59
2022/01/02 07:08:25;;;;;;;5.85;3.20;;;;;;;;;;5050549;28;20048;-58
2022/01/02 07:10:54;;;;;;;5.47;3.25;;;;;;;;;;5049682;28;20045;-58
2022/01/02 07:13:20;;;;;;;5.85;3.20;;;;;;;;;;5050514;28;20048;-59
2022/01/02 07:15:47;;;;;;;5.65;3.00;;;;;;;;;;5050346;28;20103;-59
2022/01/02 07:18:13;;;;;;;4.85;2.90;;;;;;;;;;5049821;28;20107;-59
2022/01/02 07:20:39;;;;;;;7.10;3.00;;;;;;;;;;5050572;28;20094;-59
2022/01/02 07:23:05;;;;;;;5.63;3.00;;;;;;;;;;5049595;28;20045;-59
2022/01/02 07:25:31;;;;;;;3.75;3.03;;;;;;;;;;5052656;28;20045;-59
2022/01/02 07:27:59;;;;;;;4.57;2.95;;;;;;;;;;5053763;28;20044;-59
2022/01/02 07:30:25;;;;;;;4.32;3.10;;;;;;;;;;5053474;28;20049;-59
2022/01/02 07:32:51;;;;;;;5.82;3.10;;;;;;;;;;5053606;28;20505;-58
2022/01/02 07:35:18;;;;;;;4.65;3.00;;;;;;;;;;5053962;28;20049;-59
2022/01/02 07:37:44;;;;;;;5.03;3.40;;;;;;;;;;5053054;28;20057;-59
2022/01/02 07:40:10;;;;;;;4.32;2.85;;;;;;;;;;5054117;28;20049;-59
2022/01/02 07:42:36;;;;;;;5.43;3.22;;;;;;;;;;5053858;28;20130;-59
2022/01/02 07:45:05;;;;;;;6.60;3.13;;;;;;;;;;5052878;28;20099;-59
2022/01/02 07:47:31;;;;;;;3.67;2.72;;;;;;;;;;5053592;28;20053;-59
2022/01/02 07:49:57;;;;;;;5.60;3.50;;;;;;;;;;5053339;28;20053;-59
2022/01/02 07:52:23;;;;;;;4.68;3.00;;;;;;;;;;5053053;28;20177;-59
2022/01/02 07:54:49;;;;;;;5.95;3.20;;;;;;;;;;5053446;28;20049;-59
2022/01/02 07:57:16;;;;;;;6.80;3.40;;;;;;;;;;5053602;28;20091;-59
2022/01/02 07:59:42;;;;;;;6.57;3.10;;;;;;;;;;5052864;28;20466;-59
2022/01/02 08:02:09;;;;;;;5.82;2.88;;;;;;;;;;5053431;28;20095;-59
2022/01/02 08:04:36;;;;;;;6.28;2.85;;;;;;;;;;5052901;28;20114;-59
2022/01/02 08:07:02;;;;;;;4.63;2.80;;;;;;;;;;5052399;28;20049;-59
2022/01/02 08:09:28;;;;;;;5.80;3.17;;;;;;;;;;5053205;28;20190;-59
2022/01/02 08:11:54;;;;;;;7.13;3.20;;;;;;;;;;5053019;28;20049;-59
2022/01/02 08:14:21;;;;;;;4.78;3.20;;;;;;;;;;5052386;28;20451;-59
2022/01/02 08:16:48;;;;;;;4.70;2.85;;;;;;;;;;5052789;28;20041;-59
2022/01/02 08:19:15;;;;;;;4.70;2.85;;;;;;;;;;5052300;28;20095;-59
2022/01/02 08:21:41;;;;;;;5.20;2.83;;;;;;;;;;5053191;28;20048;-59
2022/01/02 08:24:08;;;;;;;4.78;2.90;;;;;;;;;;5052924;28;20049;-60
2022/01/02 08:26:34;;;;;;;4.97;3.15;;;;;;;;;;5052322;28;20052;-61
2022/01/02 08:29:01;;;;;;;4.57;2.90;;;;;;;;;;5052517;28;20057;-61
2022/01/02 08:31:27;;;;;;;6.47;3.25;;;;;;;;;;5052796;28;20075;-61
2022/01/02 08:33:53;;;;;;;6.68;3.65;;;;;;;;;;5051848;28;20518;-60
2022/01/02 08:36:21;;;;;;;4.88;3.40;;;;;;;;;;5052752;28;20049;-61
2022/01/02 08:38:47;;;;;;;5.28;3.10;;;;;;;;;;5052664;28;20052;-61
2022/01/02 08:41:14;;;;;;;6.63;3.03;;;;;;;;;;5052257;28;20118;-61
2022/01/02 08:43:40;;;;;;;3.83;2.78;;;;;;;;;;5052773;28;20049;-61
2022/01/02 08:46:06;;;;;;;6.40;3.25;;;;;;;;;;5052414;28;20045;-60
2022/01/02 08:48:32;;;;;;;5.28;2.72;;;;;;;;;;5052102;28;20041;-61
2022/01/02 08:50:58;;;;;;;5.18;3.15;;;;;;;;;;5052525;28;20044;-61
2022/01/02 08:53:27;;;;;;;4.80;3.28;;;;;;;;;;5052769;28;20442;-60
2022/01/02 08:55:53;;;;;;;5.70;3.50;;;;;;;;;;5051106;28;20502;-58
2022/01/02 08:58:20;;;;;;;4.70;3.03;;;;;;;;;;5051715;28;20045;-60
2022/01/02 09:00:46;;;;;;;4.50;2.95;;;;;;;;;;5052169;28;20052;-60
2022/01/02 09:03:12;;;;;;;5.35;3.40;;;;;;;;;;5052128;28;20041;-59
2022/01/02 09:05:39;;;;;;;5.13;3.58;;;;;;;;;;5052401;28;20098;-60
2022/01/02 09:08:05;;;;;;;7.88;5.88;;;;;;;;;;5052047;28;20055;-60
2022/01/02 09:10:33;;;;;;;6.97;4.40;;;;;;;;;;5051473;28;20088;-60
2022/01/02 09:12:59;;;;;;;9.18;5.00;;;;;;;;;;5052046;28;20049;-59
2022/01/02 09:15:25;;;;;;;9.32;6.55;;;;;;;;;;5051981;28;20049;-59
2022/01/02 09:17:51;;;;;;;8.90;6.30;;;;;;;;;;5051800;28;20053;-59
2022/01/02 09:20:18;;;;;;;7.03;5.70;;;;;;;;;;5052069;28;20056;-59
2022/01/02 09:22:46;;;;;;;8.98;5.88;;;;;;;;;;5051219;28;20049;-61
2022/01/02 09:25:12;;;;;;;7.63;6.25;;;;;;;;;;5052033;28;20068;-61
2022/01/02 09:27:41;;;;;;;7.35;5.93;;;;;;;;;;5052019;28;20076;-62
2022/01/02 09:30:08;;;;;;;8.95;5.55;;;;;;;;;;5051377;28;20110;-61
2022/01/02 09:32:34;;;;;;;8.77;6.10;;;;;;;;;;5051975;28;20104;-61
2022/01/02 09:35:00;;;;;;;8.82;6.00;;;;;;;;;;5051707;28;20048;-61
2022/01/02 09:37:26;;;;;;;10.02;5.57;;;;;;;;;;5051058;28;20152;-61
2022/01/02 09:39:53;;;;;;;6.80;5.25;;;;;;;;;;5051462;28;20041;-61
2022/01/02 09:42:19;;;;;;;8.50;6.07;;;;;;;;;;5051707;28;20045;-61
2022/01/02 09:44:47;;;;;;;9.63;6.15;;;;;;;;;;5050783;28;20048;-61
2022/01/02 09:47:15;;;;;;;10.63;7.00;;;;;;;;;;5051048;28;20103;-61
2022/01/02 09:49:41;;;;;;;12.80;7.15;;;;;;;;;;5051563;28;20049;-61
2022/01/02 09:52:07;;;;;;;7.93;6.40;;;;;;;;;;5050593;28;20082;-60
2022/01/02 09:54:34;;;;;;;10.27;7.45;;;;;;;;;;5051605;28;20045;-60
2022/01/02 09:57:01;;;;;;;13.05;7.43;;;;;;;;;;5050988;28;20553;-60
2022/01/02 09:59:27;;;;;;;9.52;6.90;;;;;;;;;;5050521;28;20446;-61
2022/01/02 10:01:54;;;;;;;8.80;6.20;;;;;;;;;;5050996;28;20075;-60
2022/01/02 10:04:32;;;;;;;10.35;7.03;;;;;;;;;;5051202;28;20051;-60
2022/01/02 10:06:59;;;;;;;9.10;6.20;;;;;;;;;;5050208;28;20049;-61
2022/01/02 10:09:33;;;;;;;11.82;6.35;;;;;;;;;;5051209;28;20103;-61
2022/01/02 10:12:19;;;;;;;7.93;5.88;;;;;;;;;;5050318;28;20045;-60
2022/01/02 10:14:46;;;;;;;7.55;5.35;;;;;;;;;;5051127;28;20049;-60
2022/01/02 10:17:13;;;;;;;8.85;5.93;;;;;;;;;;5051204;28;20053;-60
2022/01/02 10:19:42;;;;;;;8.10;5.70;;;;;;;;;;5050218;28;20048;-60
2022/01/02 10:22:08;;;;;;;8.35;5.65;;;;;;;;;;5051063;28;20049;-60
2022/01/02 10:24:36;;;;;;;8.85;5.40;;;;;;;;;;5051193;28;20514;-60
2022/01/02 10:27:05;;;;;;;6.97;5.22;;;;;;;;;;5050016;28;20451;-60
2022/01/02 10:29:39;;;;;;;7.95;5.25;;;;;;;;;;5051265;28;20049;-60
2022/01/02 10:32:22;;;;;;;7.75;5.18;;;;;;;;;;5050676;28;20500;-60
2022/01/02 10:34:49;;;;;;;8.73;5.50;;;;;;;;;;5049977;28;20400;-60
2022/01/02 10:37:22;;;;;;;7.72;5.18;;;;;;;;;;5051137;28;20049;-60
2022/01/02 10:39:49;;;;;;;6.75;5.00;;;;;;;;;;5050939;28;20098;-60
2022/01/02 10:42:16;;;;;;;10.18;5.38;;;;;;;;;;5050571;28;20099;-60
2022/01/02 10:44:43;;;;;;;12.93;5.15;;;;;;;;;;5050802;28;20051;-60
2022/01/02 10:47:11;;;;;;;7.93;4.97;;;;;;;;;;5050450;28;20098;-59
2022/01/02 10:49:47;;;;;;;8.05;4.88;;;;;;;;;;5051135;28;20048;-60
2022/01/02 10:52:19;;;;;;;8.70;4.93;;;;;;;;;;5051015;28;20095;-60
2022/01/02 10:54:45;;;;;;;8.57;5.20;;;;;;;;;;5049911;28;20450;-60
2022/01/02 10:57:12;;;;;;;7.63;5.35;;;;;;;;;;5050940;28;20055;-59
2022/01/02 10:59:39;;;;;;;9.07;4.93;;;;;;;;;;5053240;28;20045;-59
2022/01/02 11:02:05;;;;;;;6.00;5.22;;;;;;;;;;5054069;28;20537;-60
2022/01/02 11:04:32;;;;;;;8.27;4.75;;;;;;;;;;5054683;28;20091;-59
2022/01/02 11:07:00;;;;;;;8.32;5.00;;;;;;;;;;5054525;28;20045;-59
2022/01/02 11:09:28;;;;;;;7.55;4.93;;;;;;;;;;5053662;28;20107;-59
2022/01/02 11:11:54;;;;;;;8.45;5.25;;;;;;;;;;5054893;28;20095;-59
2022/01/02 11:14:21;;;;;;;6.40;4.65;;;;;;;;;;5054775;28;20045;-60
2022/01/02 11:16:47;;;;;;;9.70;4.78;;;;;;;;;;5053636;28;20515;-59
2022/01/02 11:19:14;;;;;;;8.82;4.97;;;;;;;;;;5054550;28;20045;-59
2022/01/02 11:21:41;;;;;;;8.50;4.78;;;;;;;;;;5054382;28;20484;-60
2022/01/02 11:24:11;;;;;;;8.70;4.75;;;;;;;;;;5053501;28;20099;-59
2022/01/02 11:26:42;;;;;;;7.82;5.00;;;;;;;;;;5054352;28;20122;-59
2022/01/02 11:29:08;;;;;;;8.15;5.00;;;;;;;;;;5053507;28;20442;-59
2022/01/02 11:31:35;;;;;;;9.55;5.15;;;;;;;;;;5054328;28;20086;-59
2022/01/02 11:34:02;;;;;;;8.48;4.80;;;;;;;;;;5053885;28;20404;-60
2022/01/02 11:36:30;;;;;;;8.18;4.40;;;;;;;;;;5053474;28;20450;-59
2022/01/02 11:38:57;;;;;;;8.20;4.47;;;;;;;;;;5053608;28;20043;-59
2022/01/02 11:41:33;;;;;;;9.15;4.70;;;;;;;;;;5054313;28;20107;-59
2022/01/02 11:44:01;;;;;;;10.05;4.70;;;;;;;;;;5052397;28;20537;-61
2022/01/02 11:46:28;;;;;;;11.20;4.70;;;;;;;;;;5054082;28;20049;-59
2022/01/02 11:49:16;;;;;;;7.47;4.45;;;;;;;;;;5053590;28;20395;-59
2022/01/02 11:51:59;;;;;;;10.82;4.72;;;;;;;;;;5053168;28;20047;-60
2022/01/02 11:54:43;;;;;;;9.27;4.60;;;;;;;;;;5052261;28;20091;-59
2022/01/02 11:57:28;;;;;;;7.25;4.28;;;;;;;;;;5053889;28;20041;-59
2022/01/02 11:59:58;;;;;;;9.02;4.28;;;;;;;;;;5053188;28;20099;-59
2022/01/02 12:02:34;;;;;;;7.45;4.95;;;;;;;;;;5053910;28;20049;-59
2022/01/02 12:05:02;;;;;;;;;;;;;;;;;;5052743;28;20057;-59
2022/01/02 12:07:53;;;;;;;8.35;5.10;;;;;;;;;;5053652;28;19920;-59
2022/01/02 12:10:27;;;;;;;12.85;5.35;;;;;;;;;;5052877;28;20057;-59
2022/01/02 12:13:16;;;;;;;9.50;4.60;;;;;;;;;;5052529;28;20411;-59
2022/01/02 12:16:01;;;;;;;10.88;5.00;;;;;;;;;;5052924;28;20053;-59
2022/01/02 12:18:29;;;;;;;10.65;5.03;;;;;;;;;;5052461;28;20060;-60
2022/01/02 12:21:11;;;;;;;11.38;4.90;;;;;;;;;;5052767;28;20530;-59
2022/01/02 12:23:53;;;;;;;9.82;4.68;;;;;;;;;;5053597;28;20045;-59
2022/01/02 12:26:21;;;;;;;11.75;5.20;;;;;;;;;;5052315;28;20041;-59
2022/01/02 12:28:48;;;;;;;14.90;5.00;;;;;;;;;;5052834;28;20049;-59
2022/01/02 12:31:16;;;;;;;11.40;4.60;;;;;;;;;;5052656;28;20129;-59
2022/01/02 12:33:43;;;;;;;18.63;5.07;;;;;;;;;;5052100;28;20476;-59
2022/01/02 12:36:10;;;;;;;13.80;4.72;;;;;;;;;;5052981;28;20045;-58
2022/01/02 12:38:45;;;;;;;12.07;5.00;;;;;;;;;;5053292;28;20098;-58
2022/01/02 12:41:11;;;;;;;8.80;4.22;;;;;;;;;;5052710;28;20049;-59
2022/01/02 12:43:37;;;;;;;12.63;4.28;;;;;;;;;;5052737;28;20484;-59
2022/01/02 12:46:03;;;;;;;10.20;4.20;;;;;;;;;;5052543;28;20052;-60
2022/01/02 12:48:33;;;;;;;16.75;4.80;;;;;;;;;;5051479;28;20041;-60
2022/01/02 12:51:14;;;;;;;15.68;4.50;;;;;;;;;;5051029;28;20497;-61
2022/01/02 12:53:40;;;;;;;11.45;4.65;;;;;;;;;;5052106;28;20041;-60
2022/01/02 12:56:06;;;;;;;13.75;4.70;;;;;;;;;;5052171;28;20045;-60
2022/01/02 12:58:34;;;;;;;13.77;4.30;;;;;;;;;;5052892;28;20049;-60
2022/01/02 13:01:03;;;;;;;18.15;5.18;;;;;;;;;;5051447;28;20140;-60
2022/01/02 13:03:29;;;;;;;12.88;4.07;;;;;;;;;;5052639;28;20045;-60
2022/01/02 13:05:55;;;;;;;12.35;3.97;;;;;;;;;;5051744;28;20503;-60
2022/01/02 13:08:26;;;;;;;14.68;4.00;;;;;;;;;;5051674;28;20098;-60
2022/01/02 13:10:53;;;;;;;11.63;4.50;;;;;;;;;;5051712;28;20552;-61
2022/01/02 13:13:29;;;;;;;17.85;4.65;;;;;;;;;;5052349;28;20377;-58
2022/01/02 13:15:55;;;;;;;10.38;4.00;;;;;;;;;;5051155;28;20044;-58
2022/01/02 13:18:21;;;;;;;16.50;4.43;;;;;;;;;;5052217;28;20045;-58
2022/01/02 13:20:48;;;;;;;13.95;4.32;;;;;;;;;;5051822;28;20049;-58
2022/01/02 13:23:14;;;;;;;13.50;3.83;;;;;;;;;;5050311;28;20132;-58
2022/01/02 13:25:45;;;;;;;14.52;4.38;;;;;;;;;;5052341;28;20045;-58
2022/01/02 13:28:12;;;;;;;14.60;4.68;;;;;;;;;;5052008;28;20076;-59
2022/01/02 13:30:39;;;;;;;12.25;3.50;;;;;;;;;;5050807;28;20488;-59
2022/01/02 13:33:15;;;;;;;11.93;3.42;;;;;;;;;;5051267;28;20053;-58
2022/01/02 13:35:42;;;;;;;16.88;3.95;;;;;;;;;;5050928;28;20051;-59
2022/01/02 13:38:08;;;;;;;19.15;4.43;;;;;;;;;;5051837;28;20076;-59
2022/01/02 13:40:35;;;;;;;13.18;3.65;;;;;;;;;;5051938;28;20061;-58
2022/01/02 13:43:08;;;;;;;11.15;3.45;;;;;;;;;;5050554;28;20048;-59
2022/01/02 13:45:35;;;;;;;12.57;3.58;;;;;;;;;;5051572;28;20049;-59
2022/01/02 13:48:08;;;;;;;17.45;3.70;;;;;;;;;;5050930;28;20517;-59
2022/01/02 13:50:36;;;;;;;14.68;3.63;;;;;;;;;;5050864;28;20053;-59
2022/01/02 13:53:04;;;;;;;14.02;3.75;;;;;;;;;;5051133;28;20049;-59
2022/01/02 13:55:32;;;;;;;14.30;3.78;;;;;;;;;;5051767;28;20045;-59
2022/01/02 13:58:00;;;;;;;16.10;4.03;;;;;;;;;;5050378;28;20049;-59
2022/01/02 14:00:28;;;;;;;14.95;3.40;;;;;;;;;;5051423;28;20098;-59
2022/01/02 14:02:55;;;;;;;11.70;3.72;;;;;;;;;;5050914;28;20045;-58
2022/01/02 14:05:22;;;;;;;11.57;3.65;;;;;;;;;;5050447;28;20057;-58
2022/01/02 14:07:48;;;;;;;15.30;4.00;;;;;;;;;;5051099;28;20041;-58
2022/01/02 14:10:15;;;;;;;10.90;3.50;;;;;;;;;;5051340;28;20454;-59
2022/01/02 14:12:41;;;;;;;13.52;4.05;;;;;;;;;;5050804;28;20693;-59
2022/01/02 14:15:14;;;;;;;14.82;3.70;;;;;;;;;;5051354;28;20053;-59
2022/01/02 14:17:45;;;;;;;14.27;3.95;;;;;;;;;;5051609;28;20060;-58
2022/01/02 14:20:14;;;;;;;11.60;3.67;;;;;;;;;;5050779;28;20041;-59
2022/01/02 14:22:42;;;;;;;13.65;3.47;;;;;;;;;;5051268;28;20079;-59
2022/01/02 14:25:08;;;;;;;11.43;3.63;;;;;;;;;;5050337;28;20437;-58
2022/01/02 14:27:35;;;;;;;11.48;3.15;;;;;;;;;;5051110;28;20057;-59
2022/01/02 14:30:01;;;;;;;11.65;3.58;;;;;;;;;;5051074;28;20873;-58
2022/01/02 14:32:28;;;;;;;15.10;3.45;;;;;;;;;;5050130;28;20496;-59
2022/01/02 14:34:56;;;;;;;15.63;3.58;;;;;;;;;;5053709;28;20049;-59
2022/01/02 14:37:23;;;;;;;13.75;3.53;;;;;;;;;;5055486;28;20079;-59
2022/01/02 14:39:49;;;;;;;12.77;3.67;;;;;;;;;;5054008;28;20049;-58
2022/01/02 14:42:15;;;;;;;17.10;3.55;;;;;;;;;;5055148;28;20051;-59
2022/01/02 14:44:42;;;;;;;16.38;3.63;;;;;;;;;;5055125;28;20045;-58
2022/01/02 14:47:09;;;;;;;13.32;3.78;;;;;;;;;;5054518;28;20040;-58